Time;durP1;ratioP1;P1;durP2;ratioP2;P2;SDS_P1;SDS_P2;PMS_P1;PMS_P2;Temp;Humidity;BMP_temperature;BMP_pressure;BME280_temperature;BME280_humidity;BME280_pressure;Samples;Min_cycle;Max_cycle;Signal;HPM_P1;HPM_P2
2023/04/08 00:00:10;;;;;;;1.65;1.55;;;24.90;49.10;;;;;;5094992;28;20204;-65
2023/04/08 00:02:58;;;;;;;1.45;1.35;;;24.90;49.00;;;;;;5095130;28;20278;-66
2023/04/08 00:05:46;;;;;;;1.52;1.42;;;25.10;49.10;;;;;;5095802;28;20199;-66
2023/04/08 00:08:34;;;;;;;1.77;1.67;;;25.00;49.00;;;;;;5095425;28;20295;-65
2023/04/08 00:11:22;;;;;;;1.90;1.40;;;24.90;49.10;;;;;;5096124;28;20202;-65
2023/04/08 00:14:10;;;;;;;2.55;1.35;;;24.80;49.20;;;;;;5095619;28;20687;-66
2023/04/08 00:17:00;;;;;;;1.63;1.52;;;24.70;49.20;;;;;;5095182;28;20220;-66
2023/04/08 00:19:48;;;;;;;1.77;1.67;;;24.60;49.30;;;;;;5095285;28;20204;-66
2023/04/08 00:22:36;;;;;;;1.60;1.50;;;24.70;49.30;;;;;;5094886;28;20196;-66
2023/04/08 00:25:24;;;;;;;1.60;1.50;;;24.70;49.30;;;;;;5094525;28;20192;-66
2023/04/08 00:28:14;;;;;;;2.00;1.55;;;24.90;49.30;;;;;;5095993;28;20228;-66
2023/04/08 00:31:02;;;;;;;1.33;1.23;;;24.90;49.20;;;;;;5093670;28;20246;-65
2023/04/08 00:33:51;;;;;;;1.90;1.80;;;25.00;49.20;;;;;;5094608;28;20275;-66
2023/04/08 00:36:39;;;;;;;1.40;1.30;;;24.90;52.20;;;;;;5095226;28;20192;-66
2023/04/08 00:39:27;;;;;;;1.83;1.73;;;25.10;48.90;;;;;;5094241;28;20643;-65
2023/04/08 00:42:16;;;;;;;1.70;1.60;;;25.20;48.90;;;;;;5094282;28;20696;-66
2023/04/08 00:45:04;;;;;;;1.75;1.65;;;25.20;48.80;;;;;;5094365;28;20231;-66
2023/04/08 00:47:52;;;;;;;2.20;2.10;;;25.20;48.90;;;;;;5095315;28;20596;-66
2023/04/08 00:50:43;;;;;;;1.52;1.42;;;25.10;48.90;;;;;;5095193;28;20204;-65
2023/04/08 00:53:32;;;;;;;1.80;1.70;;;25.10;49.00;;;;;;5094552;28;20220;-67
2023/04/08 00:56:20;;;;;;;2.53;1.70;;;25.10;49.10;;;;;;5094675;28;20200;-65
2023/04/08 00:59:08;;;;;;;2.42;1.90;;;25.10;49.80;;;;;;5113065;28;20210;-66
2023/04/08 01:02:13;;;;;;;2.85;2.05;;;25.00;49.10;;;;;;5113545;28;20201;-66
2023/04/08 01:05:05;;;;;;;2.35;2.13;;;25.00;49.20;;;;;;5114424;28;20195;-66
2023/04/08 01:07:55;;;;;;;2.10;1.90;;;25.00;49.30;;;;;;5115243;27;20310;-67
2023/04/08 01:10:48;;;;;;;1.70;1.60;;;25.00;49.20;;;;;;5113904;28;20728;-65
2023/04/08 01:13:39;;;;;;;2.10;1.90;;;25.00;49.20;;;;;;5113140;28;20306;-66
2023/04/08 01:16:28;;;;;;;2.47;2.22;;;25.30;53.30;;;;;;5114341;28;20278;-66
2023/04/08 01:19:25;;;;;;;2.28;2.08;;;25.00;49.30;;;;;;5114352;28;20587;-66
2023/04/08 01:22:25;;;;;;;2.65;2.45;;;24.90;49.20;;;;;;5112896;28;20293;-65
2023/04/08 01:25:19;;;;;;;2.20;2.00;;;24.90;49.20;;;;;;5113772;28;20686;-66
2023/04/08 01:28:11;;;;;;;3.20;1.90;;;24.90;49.20;;;;;;5113894;28;20227;-66
2023/04/08 01:31:01;;;;;;;3.60;2.45;;;24.90;49.30;;;;;;5114542;28;20199;-66
2023/04/08 01:33:51;;;;;;;3.30;2.38;;;24.80;49.20;;;;;;5112966;28;20267;-65
2023/04/08 01:36:41;;;;;;;2.40;2.20;;;24.80;52.90;;;;;;5113056;28;20248;-66
2023/04/08 01:39:30;;;;;;;3.42;2.67;;;24.90;49.40;;;;;;5112873;28;20701;-65
2023/04/08 01:42:18;;;;;;;2.50;2.30;;;24.90;49.40;;;;;;5112666;28;20201;-65
2023/04/08 01:45:10;;;;;;;3.67;2.90;;;25.00;49.40;;;;;;5114016;28;20276;-66
2023/04/08 01:47:59;;;;;;;2.30;2.13;;;25.00;49.30;;;;;;5112766;28;20223;-66
2023/04/08 01:50:50;;;;;;;3.40;3.10;;;25.00;49.20;;;;;;5114111;28;20195;-66
2023/04/08 01:53:38;;;;;;;2.88;2.55;;;25.00;49.90;;;;;;5097088;28;20310;-66
2023/04/08 01:56:28;;;;;;;2.85;2.65;;;25.00;49.20;;;;;;5102214;28;20273;-66
2023/04/08 01:59:18;;;;;;;3.17;2.85;;;24.90;49.20;;;;;;5093205;28;20688;-66
2023/04/08 02:02:09;;;;;;;2.38;2.17;;;24.90;49.30;;;;;;5092726;28;20329;-65
2023/04/08 02:04:58;;;;;;;3.28;2.97;;;24.80;49.30;;;;;;5093020;28;20204;-66
2023/04/08 02:07:47;;;;;;;4.97;3.42;;;24.80;49.40;;;;;;5093194;28;20296;-66
2023/04/08 02:10:35;;;;;;;3.45;2.90;;;24.80;49.50;;;;;;5093054;28;20279;-65
2023/04/08 02:13:23;;;;;;;3.30;3.00;;;24.70;49.50;;;;;;5092917;28;20299;-65
2023/04/08 02:16:16;;;;;;;4.38;3.50;;;24.70;49.60;;;;;;5093800;28;20199;-66
2023/04/08 02:19:11;;;;;;;3.58;3.13;;;24.80;49.60;;;;;;5092894;28;20603;-67
2023/04/08 02:22:05;;;;;;;4.00;3.15;;;24.80;49.50;;;;;;5091892;28;20195;-66
2023/04/08 02:24:53;;;;;;;3.25;2.40;;;24.90;49.40;;;;;;5092927;28;20573;-65
2023/04/08 02:27:43;;;;;;;4.00;3.25;;;25.00;49.40;;;;;;5092388;28;20311;-66
2023/04/08 02:30:33;;;;;;;3.40;3.10;;;25.00;49.30;;;;;;5092753;28;20680;-66
2023/04/08 02:33:22;;;;;;;3.38;3.08;;;25.00;49.20;;;;;;5092071;28;20356;-66
2023/04/08 02:36:14;;;;;;;5.18;3.60;;;25.10;49.20;;;;;;5092488;28;20248;-66
2023/04/08 02:39:02;;;;;;;3.15;2.85;;;25.10;49.20;;;;;;5092885;28;20333;-65
2023/04/08 02:41:50;;;;;;;4.03;3.63;;;25.10;49.20;;;;;;5092128;28;20734;-66
2023/04/08 02:44:38;;;;;;;3.15;2.50;;;25.10;49.20;;;;;;5092482;28;20254;-66
2023/04/08 02:47:26;;;;;;;4.32;3.80;;;25.10;49.20;;;;;;5091908;28;20215;-67
2023/04/08 02:50:15;;;;;;;4.05;3.08;;;25.00;49.30;;;;;;5092689;28;20207;-66
2023/04/08 02:53:04;;;;;;;5.03;3.78;;;25.00;49.40;;;;;;5090504;28;20306;-66
2023/04/08 02:55:52;;;;;;;4.40;3.70;;;25.00;49.40;;;;;;5092415;28;20297;-65
2023/04/08 02:58:40;;;;;;;3.30;3.08;;;25.00;49.40;;;;;;5092162;28;20224;-66
2023/04/08 03:01:29;;;;;;;4.25;3.45;;;25.00;49.40;;;;;;5092205;28;20320;-66
2023/04/08 03:04:17;;;;;;;4.72;3.72;;;25.00;49.40;;;;;;5092211;28;20790;-66
2023/04/08 03:07:05;;;;;;;3.97;3.55;;;25.00;49.30;;;;;;5091800;28;20706;-65
2023/04/08 03:09:57;;;;;;;3.95;3.10;;;25.00;49.40;;;;;;5092355;28;20577;-66
2023/04/08 03:12:45;;;;;;;5.00;3.92;;;25.20;49.50;;;;;;5091807;28;20672;-66
2023/04/08 03:15:33;;;;;;;5.20;4.53;;;25.10;49.40;;;;;;5092150;28;20283;-66
2023/04/08 03:18:21;;;;;;;4.78;4.03;;;25.10;49.40;;;;;;5092096;28;20294;-66
2023/04/08 03:21:09;;;;;;;4.15;3.80;;;25.00;49.40;;;;;;5092018;28;20231;-66
2023/04/08 03:23:57;;;;;;;3.10;2.67;;;25.00;49.50;;;;;;5092072;28;20245;-65
2023/04/08 03:26:46;;;;;;;4.38;3.20;;;25.30;54.20;;;;;;5091854;28;20576;-65
2023/04/08 03:29:34;;;;;;;3.65;3.03;;;24.90;49.50;;;;;;5091976;28;20702;-66
2023/04/08 03:32:23;;;;;;;5.10;3.55;;;24.90;49.60;;;;;;5091615;28;20200;-66
2023/04/08 03:35:11;;;;;;;4.13;3.35;;;24.80;49.70;;;;;;5092121;28;20223;-66
2023/04/08 03:37:59;;;;;;;4.07;3.60;;;24.70;49.80;;;;;;5091948;28;20719;-66
2023/04/08 03:40:47;;;;;;;4.43;3.53;;;24.60;49.90;;;;;;5092193;28;20288;-66
2023/04/08 03:43:36;;;;;;;5.93;4.60;;;24.50;49.90;;;;;;5091570;28;20224;-65
2023/04/08 03:46:25;;;;;;;5.40;4.25;;;24.60;49.90;;;;;;5092018;28;20196;-66
2023/04/08 03:49:13;;;;;;;4.57;4.03;;;24.70;49.30;;;;;;5091910;28;20226;-66
2023/04/08 03:52:01;;;;;;;4.97;4.47;;;24.80;49.80;;;;;;5091241;28;20732;-65
2023/04/08 03:54:49;;;;;;;7.03;4.25;;;25.80;50.20;;;;;;5091948;28;20299;-66
2023/04/08 03:57:37;;;;;;;4.80;4.25;;;25.00;49.50;;;;;;5102640;28;20261;-66
2023/04/08 04:00:26;;;;;;;6.50;4.25;;;25.10;49.40;;;;;;5112094;28;20288;-66
2023/04/08 04:03:14;;;;;;;5.50;4.47;;;25.10;49.40;;;;;;5110539;28;20264;-65
2023/04/08 04:06:03;;;;;;;5.53;4.63;;;25.20;49.40;;;;;;5114855;28;20671;-66
2023/04/08 04:08:53;;;;;;;5.95;4.30;;;25.20;49.40;;;;;;5114576;28;20290;-66
2023/04/08 04:11:41;;;;;;;4.20;3.80;;;25.10;49.30;;;;;;5115854;28;20235;-66
2023/04/08 04:14:29;;;;;;;5.57;4.35;;;25.20;49.50;;;;;;5115948;28;20227;-67
2023/04/08 04:17:18;;;;;;;4.50;4.03;;;25.10;49.40;;;;;;5115703;28;20285;-66
2023/04/08 04:20:07;;;;;;;5.05;4.20;;;25.00;49.50;;;;;;5113065;28;20203;-66
2023/04/08 04:22:56;;;;;;;5.60;4.40;;;25.00;49.50;;;;;;5113839;28;20690;-66
2023/04/08 04:25:44;;;;;;;6.28;4.15;;;25.10;49.50;;;;;;5115972;28;20227;-66
2023/04/08 04:28:32;;;;;;;5.32;3.72;;;25.00;49.40;;;;;;5115318;28;20745;-66
2023/04/08 04:31:21;;;;;;;5.90;4.28;;;25.10;49.50;;;;;;5113836;28;20207;-67
2023/04/08 04:34:10;;;;;;;6.78;4.57;;;25.10;49.60;;;;;;5115369;28;20216;-66
2023/04/08 04:36:58;;;;;;;4.95;3.92;;;25.10;49.60;;;;;;5114378;28;20253;-66
2023/04/08 04:39:46;;;;;;;6.40;4.88;;;25.20;49.70;;;;;;5115558;28;20719;-66
2023/04/08 04:42:34;;;;;;;6.68;4.57;;;25.00;49.60;;;;;;5113678;28;20191;-66
2023/04/08 04:45:22;;;;;;;7.78;4.35;;;25.00;49.60;;;;;;5115400;28;20275;-66
2023/04/08 04:48:10;;;;;;;6.60;4.95;;;25.00;49.70;;;;;;5115358;28;20645;-63
2023/04/08 04:51:01;;;;;;;6.10;4.57;;;25.00;49.70;;;;;;5115650;28;20574;-66
2023/04/08 04:53:50;;;;;;;5.03;4.35;;;24.90;49.70;;;;;;5112840;28;20611;-64
2023/04/08 04:56:38;;;;;;;6.47;5.03;;;25.20;53.40;;;;;;5111954;28;20196;-66
2023/04/08 04:59:26;;;;;;;5.10;4.22;;;24.90;49.80;;;;;;5094953;28;20735;-66
2023/04/08 05:02:14;;;;;;;6.60;4.50;;;25.00;49.80;;;;;;5093841;28;20196;-66
2023/04/08 05:05:02;;;;;;;6.85;4.80;;;25.00;49.90;;;;;;5094651;28;20513;-66
2023/04/08 05:07:52;;;;;;;6.82;5.35;;;25.00;49.80;;;;;;5094884;28;20703;-67
2023/04/08 05:10:41;;;;;;;7.50;5.93;;;25.00;49.70;;;;;;5093939;28;20199;-66
2023/04/08 05:13:29;;;;;;;6.20;4.35;;;25.10;49.60;;;;;;5094936;28;20231;-67
2023/04/08 05:16:17;;;;;;;6.82;4.90;;;25.10;49.60;;;;;;5094296;28;20674;-66
2023/04/08 05:19:05;;;;;;;5.53;4.43;;;25.20;49.50;;;;;;5094991;28;20553;-67
2023/04/08 05:21:53;;;;;;;6.20;4.25;;;25.20;49.50;;;;;;5093485;28;20209;-67
2023/04/08 05:24:42;;;;;;;7.03;4.97;;;25.20;49.60;;;;;;5092904;28;20242;-67
2023/04/08 05:27:30;;;;;;;7.78;5.03;;;25.10;49.60;;;;;;5092917;28;20223;-66
2023/04/08 05:30:19;;;;;;;5.20;4.68;;;25.10;49.70;;;;;;5092825;28;20206;-66
2023/04/08 05:33:07;;;;;;;6.95;4.80;;;24.90;49.80;;;;;;5092652;28;20276;-66
2023/04/08 05:35:55;;;;;;;7.00;5.63;;;24.70;49.90;;;;;;5094292;28;20585;-66
2023/04/08 05:38:44;;;;;;;7.60;5.75;;;24.70;50.10;;;;;;5092745;28;20227;-66
2023/04/08 05:41:33;;;;;;;6.05;4.88;;;24.70;50.20;;;;;;5093181;28;20208;-66
2023/04/08 05:44:21;;;;;;;5.93;4.97;;;24.70;50.10;;;;;;5093732;28;20317;-66
2023/04/08 05:47:09;;;;;;;6.38;5.10;;;24.70;50.10;;;;;;5093684;28;20251;-66
2023/04/08 05:49:58;;;;;;;7.28;5.28;;;24.90;50.20;;;;;;5093404;28;20211;-66
2023/04/08 05:52:46;;;;;;;7.10;5.32;;;24.90;50.00;;;;;;5093201;28;20196;-66
2023/04/08 05:55:34;;;;;;;6.80;4.75;;;25.00;50.00;;;;;;5094222;28;20293;-67
2023/04/08 05:58:24;;;;;;;6.75;5.32;;;25.10;49.90;;;;;;5110571;28;20273;-67
2023/04/08 06:01:12;;;;;;;6.78;5.47;;;25.10;49.70;;;;;;5113040;28;20278;-67
2023/04/08 06:04:00;;;;;;;5.32;4.47;;;25.20;49.60;;;;;;5114204;27;20245;-66
2023/04/08 06:06:48;;;;;;;6.40;5.25;;;25.20;49.60;;;;;;5114335;27;20219;-66
2023/04/08 06:09:37;;;;;;;9.10;5.85;;;25.30;50.30;;;;;;5112995;28;20199;-66
2023/04/08 06:12:25;;;;;;;8.32;5.70;;;25.20;49.60;;;;;;5112549;28;20695;-67
2023/04/08 06:15:15;;;;;;;9.50;6.35;;;25.20;49.70;;;;;;5114077;27;20259;-66
2023/04/08 06:18:03;;;;;;;7.20;5.70;;;25.30;49.80;;;;;;5112697;28;20223;-66
2023/04/08 06:20:51;;;;;;;8.18;5.82;;;25.10;49.70;;;;;;5112402;28;20202;-66
2023/04/08 06:23:40;;;;;;;9.68;5.47;;;25.10;49.70;;;;;;5113332;28;20227;-66
2023/04/08 06:26:28;;;;;;;9.27;6.22;;;25.30;53.60;;;;;;5113799;28;20256;-66
2023/04/08 06:29:16;;;;;;;7.50;5.38;;;25.20;49.80;;;;;;5113893;27;20278;-66
2023/04/08 06:32:06;;;;;;;6.90;5.38;;;25.30;49.90;;;;;;5113896;27;20296;-66
2023/04/08 06:34:54;;;;;;;7.35;5.63;;;25.20;49.80;;;;;;5113439;27;20215;-66
2023/04/08 06:37:42;;;;;;;7.65;5.97;;;25.30;49.80;;;;;;5113957;28;20251;-67
2023/04/08 06:40:30;;;;;;;7.07;5.93;;;25.20;49.70;;;;;;5113121;28;20199;-66
2023/04/08 06:43:18;;;;;;;6.80;6.07;;;25.10;49.80;;;;;;5112562;28;20320;-66
2023/04/08 06:46:06;;;;;;;6.38;5.00;;;25.10;49.80;;;;;;5113408;27;20203;-67
2023/04/08 06:48:55;;;;;;;7.35;4.85;;;25.10;49.90;;;;;;5112313;28;20203;-66
2023/04/08 06:51:43;;;;;;;6.57;5.22;;;25.10;49.90;;;;;;5112432;28;20282;-66
2023/04/08 06:54:31;;;;;;;8.50;6.13;;;25.00;49.90;;;;;;5112790;28;20286;-66
2023/04/08 06:57:19;;;;;;;6.28;5.43;;;25.00;50.00;;;;;;5104237;28;20303;-66
2023/04/08 07:00:09;;;;;;;7.88;5.97;;;25.00;50.00;;;;;;5090822;28;20349;-66
2023/04/08 07:02:57;;;;;;;7.13;5.15;;;25.00;50.00;;;;;;5090594;28;20228;-66
2023/04/08 07:05:47;;;;;;;7.20;5.53;;;25.10;50.00;;;;;;5090934;28;20192;-66
2023/04/08 07:08:36;;;;;;;7.13;5.30;;;25.20;50.10;;;;;;5091478;28;20302;-66
2023/04/08 07:11:24;;;;;;;8.40;6.10;;;25.20;50.00;;;;;;5090433;28;20225;-66
2023/04/08 07:14:12;;;;;;;7.32;6.07;;;25.20;49.90;;;;;;5091512;28;20337;-67
2023/04/08 07:17:00;;;;;;;7.45;5.60;;;25.30;49.90;;;;;;5091340;28;20789;-66
2023/04/08 07:19:49;;;;;;;7.15;5.55;;;25.30;49.80;;;;;;5090358;28;20626;-66
2023/04/08 07:22:38;;;;;;;7.35;6.10;;;25.30;49.80;;;;;;5090686;28;20275;-66
2023/04/08 07:25:26;;;;;;;8.85;5.47;;;25.20;49.80;;;;;;5091377;28;20275;-66
2023/04/08 07:28:15;;;;;;;10.63;6.07;;;25.20;49.90;;;;;;5090158;28;20310;-66
2023/04/08 07:31:13;;;;;;;7.72;5.20;;;25.20;49.90;;;;;;5090288;28;20195;-66
2023/04/08 07:34:01;;;;;;;8.20;5.97;;;25.20;50.00;;;;;;5090652;28;20750;-66
2023/04/08 07:36:50;;;;;;;9.90;6.00;;;25.20;50.70;;;;;;5089652;28;20228;-66
2023/04/08 07:39:39;;;;;;;8.85;6.43;;;25.10;50.00;;;;;;5090969;28;20287;-66
2023/04/08 07:42:27;;;;;;;6.25;5.63;;;25.00;50.20;;;;;;5095018;28;20325;-66
2023/04/08 07:45:16;;;;;;;8.27;6.43;;;25.00;50.40;;;;;;5095985;28;20203;-66
2023/04/08 07:48:04;;;;;;;9.23;6.07;;;24.90;50.40;;;;;;5094149;28;20314;-66
2023/04/08 07:50:52;;;;;;;9.30;6.18;;;24.90;50.50;;;;;;5094215;28;20206;-66
2023/04/08 07:53:57;;;;;;;8.07;6.40;;;25.00;50.50;;;;;;5095174;28;20200;-66
2023/04/08 07:56:46;;;;;;;8.57;6.95;;;25.10;53.90;;;;;;5097678;28;20212;-66
2023/04/08 07:59:34;;;;;;;8.23;6.38;;;25.20;50.30;;;;;;5115450;28;20235;-67
2023/04/08 08:02:23;;;;;;;7.57;5.70;;;;;;;;;;5116539;27;20675;-66
2023/04/08 08:05:12;;;;;;;9.13;5.65;;;25.40;49.50;;;;;;5115642;28;20571;-66
2023/04/08 08:08:00;;;;;;;7.85;5.90;;;25.50;50.00;;;;;;5114652;28;20223;-66
2023/04/08 08:10:48;;;;;;;6.80;6.05;;;25.60;50.00;;;;;;5115838;28;20704;-67
2023/04/08 08:13:37;;;;;;;8.50;6.53;;;25.50;49.90;;;;;;5115309;28;20340;-66
2023/04/08 08:16:28;;;;;;;6.95;5.75;;;25.50;50.50;;;;;;5114568;28;20215;-66
2023/04/08 08:19:16;;;;;;;8.35;6.10;;;25.50;50.00;;;;;;5113764;28;20230;-66
2023/04/08 08:22:04;;;;;;;7.93;5.97;;;25.50;50.00;;;;;;5115474;28;20203;-66
2023/04/08 08:24:56;;;;;;;9.32;6.47;;;25.40;50.00;;;;;;5115716;28;20278;-65
2023/04/08 08:27:44;;;;;;;7.47;6.25;;;25.40;50.10;;;;;;5113307;28;20223;-66
2023/04/08 08:30:34;;;;;;;8.50;5.85;;;25.40;50.00;;;;;;5115471;28;20674;-66
2023/04/08 08:33:22;;;;;;;7.65;6.18;;;25.50;50.10;;;;;;5116048;27;20577;-66
2023/04/08 08:36:10;;;;;;;8.82;6.68;;;25.50;50.00;;;;;;5113647;28;20323;-66
2023/04/08 08:38:58;;;;;;;6.43;5.78;;;25.50;50.30;;;;;;5115732;28;20675;-66
2023/04/08 08:41:46;;;;;;;9.75;7.25;;;25.50;50.20;;;;;;5112963;28;20573;-66
2023/04/08 08:44:34;;;;;;;8.23;6.35;;;25.60;50.20;;;;;;5115443;28;20248;-66
2023/04/08 08:47:25;;;;;;;10.25;6.03;;;25.50;50.10;;;;;;5114031;28;20211;-66
2023/04/08 08:50:13;;;;;;;7.15;6.05;;;25.40;50.10;;;;;;5114758;28;20211;-66
2023/04/08 08:53:01;;;;;;;9.32;6.70;;;25.50;50.20;;;;;;5114045;28;20282;-66
2023/04/08 08:55:49;;;;;;;8.57;6.53;;;25.50;50.30;;;;;;5113960;28;20214;-66
2023/04/08 08:58:57;;;;;;;7.72;6.22;;;25.40;50.30;;;;;;5095474;28;20203;-66
2023/04/08 09:01:45;;;;;;;6.30;5.43;;;25.40;50.40;;;;;;5093781;28;20196;-66
2023/04/08 09:04:35;;;;;;;7.97;6.25;;;25.30;50.40;;;;;;5093363;28;20287;-66
2023/04/08 09:07:25;;;;;;;6.95;5.88;;;25.30;50.40;;;;;;5094376;28;20215;-66
2023/04/08 09:10:13;;;;;;;9.10;7.03;;;25.30;50.40;;;;;;5093637;28;20281;-66
2023/04/08 09:13:01;;;;;;;6.70;6.00;;;25.30;50.40;;;;;;5092564;28;20196;-66
2023/04/08 09:16:03;;;;;;;10.60;6.93;;;25.30;50.40;;;;;;5093696;28;20196;-66
2023/04/08 09:18:52;;;;;;;8.35;6.45;;;25.40;50.40;;;;;;5092876;28;20219;-66
2023/04/08 09:21:42;;;;;;;10.18;7.03;;;25.40;50.30;;;;;;5093332;28;20199;-66
2023/04/08 09:24:31;;;;;;;7.78;6.35;;;25.40;50.30;;;;;;5093945;28;20692;-66
2023/04/08 09:27:33;;;;;;;7.43;6.57;;;25.50;50.20;;;;;;5093466;28;20255;-66
2023/04/08 09:30:23;;;;;;;9.20;6.32;;;25.60;50.20;;;;;;5094065;28;20282;-66
2023/04/08 09:33:11;;;;;;;6.97;6.25;;;25.50;50.10;;;;;;5094008;28;20223;-66
2023/04/08 09:35:59;;;;;;;8.43;6.70;;;25.50;50.20;;;;;;5093632;28;20196;-66
2023/04/08 09:38:49;;;;;;;7.90;6.75;;;25.40;50.20;;;;;;5092748;28;20219;-66
2023/04/08 09:41:39;;;;;;;7.75;6.43;;;25.40;50.40;;;;;;5092154;28;20200;-66
2023/04/08 09:44:29;;;;;;;8.82;6.03;;;25.50;50.40;;;;;;5092519;28;20294;-66
2023/04/08 09:47:21;;;;;;;8.85;7.05;;;25.50;50.30;;;;;;5092230;28;20215;-66
2023/04/08 09:50:09;;;;;;;9.00;7.03;;;25.60;50.50;;;;;;5092958;28;20281;-66
2023/04/08 09:53:02;;;;;;;6.60;5.75;;;25.40;50.40;;;;;;5092616;28;20786;-66
2023/04/08 09:55:55;;;;;;;6.05;5.45;;;25.30;50.40;;;;;;5092343;28;20660;-66
2023/04/08 09:58:51;;;;;;;7.50;6.50;;;25.30;50.60;;;;;;5092041;28;20283;-66
2023/04/08 10:01:44;;;;;;;7.68;6.63;;;25.20;50.70;;;;;;5092825;28;20253;-66
2023/04/08 10:04:38;;;;;;;7.47;6.22;;;25.10;50.70;;;;;;5092834;28;20233;-66
2023/04/08 10:07:26;;;;;;;7.55;6.60;;;25.10;50.70;;;;;;5092082;28;20231;-66
2023/04/08 10:10:14;;;;;;;11.30;6.57;;;25.30;50.70;;;;;;5092573;28;20293;-66
2023/04/08 10:13:05;;;;;;;9.20;6.60;;;25.30;50.70;;;;;;5093523;28;20244;-65
2023/04/08 10:16:21;;;;;;;6.60;5.95;;;25.20;50.60;;;;;;5092547;28;20228;-66
2023/04/08 10:19:38;;;;;;;8.38;6.35;;;25.40;50.60;;;;;;5093256;28;20565;-66
2023/04/08 10:22:47;;;;;;;8.52;6.43;;;25.40;50.50;;;;;;5091083;28;20288;-66
2023/04/08 10:25:36;;;;;;;8.60;7.07;;;25.40;50.50;;;;;;5092943;28;20299;-66
2023/04/08 10:28:25;;;;;;;7.82;7.00;;;25.50;50.50;;;;;;5092581;28;20346;-66
2023/04/08 10:31:23;;;;;;;8.38;6.45;;;25.40;50.40;;;;;;5091726;28;20203;-66
2023/04/08 10:34:17;;;;;;;7.28;6.28;;;25.50;50.40;;;;;;5093458;28;20204;-66
2023/04/08 10:37:07;;;;;;;6.97;6.28;;;25.50;50.30;;;;;;5092220;28;20219;-66
2023/04/08 10:39:55;;;;;;;8.55;7.07;;;25.60;50.30;;;;;;5091756;28;20282;-66
2023/04/08 10:42:44;;;;;;;9.00;6.30;;;25.60;50.30;;;;;;5091777;28;20192;-66
2023/04/08 10:45:32;;;;;;;8.65;7.18;;;25.60;50.30;;;;;;5091153;28;20287;-66
2023/04/08 10:48:23;;;;;;;9.32;6.80;;;25.60;50.30;;;;;;5090230;28;20342;-66
2023/04/08 10:51:11;;;;;;;9.00;6.63;;;25.60;50.20;;;;;;5091661;28;20204;-66
2023/04/08 10:54:06;;;;;;;7.10;6.15;;;25.60;50.30;;;;;;5091864;28;20281;-66
2023/04/08 10:56:54;;;;;;;8.77;7.30;;;25.60;50.30;;;;;;5096258;28;20298;-66
2023/04/08 10:59:42;;;;;;;7.55;6.03;;;25.50;50.30;;;;;;5112890;28;20278;-66
2023/04/08 11:02:33;;;;;;;8.70;6.93;;;25.40;50.40;;;;;;5112410;28;20328;-66
2023/04/08 11:05:23;;;;;;;9.75;6.72;;;25.40;50.40;;;;;;5113532;28;20198;-66
2023/04/08 11:08:11;;;;;;;7.15;6.20;;;25.40;49.90;;;;;;5114659;28;20270;-66
2023/04/08 11:11:01;;;;;;;9.07;7.78;;;25.40;50.50;;;;;;5112927;28;20427;-66
2023/04/08 11:13:49;;;;;;;10.07;6.55;;;25.50;50.50;;;;;;5113973;28;20195;-66
2023/04/08 11:16:41;;;;;;;8.07;6.53;;;25.90;54.40;;;;;;5112770;28;20203;-66
2023/04/08 11:19:29;;;;;;;9.88;6.72;;;25.50;50.30;;;;;;5110470;28;20614;-66
2023/04/08 11:22:18;;;;;;;7.80;6.57;;;25.60;50.40;;;;;;5111585;28;20640;-66
2023/04/08 11:25:09;;;;;;;9.10;6.38;;;25.60;50.30;;;;;;5110157;28;20206;-66
2023/04/08 11:27:57;;;;;;;8.00;6.57;;;25.60;50.30;;;;;;5112605;28;20310;-66
2023/04/08 11:30:46;;;;;;;8.48;7.57;;;25.60;50.40;;;;;;5112650;28;20306;-66
2023/04/08 11:33:35;;;;;;;9.40;7.00;;;25.50;50.50;;;;;;5112130;28;20218;-66
2023/04/08 11:36:23;;;;;;;7.57;6.68;;;25.30;50.60;;;;;;5111735;28;20272;-66
2023/04/08 11:39:12;;;;;;;7.68;6.15;;;25.30;50.70;;;;;;5111759;28;20809;-66
2023/04/08 11:42:00;;;;;;;6.78;5.80;;;25.30;50.80;;;;;;5112442;28;20282;-66
2023/04/08 11:44:48;;;;;;;6.97;6.15;;;25.30;50.80;;;;;;5112652;28;20206;-66
2023/04/08 11:47:36;;;;;;;8.68;6.68;;;25.40;50.70;;;;;;5112394;28;20219;-66
2023/04/08 11:50:28;;;;;;;7.72;6.80;;;25.50;50.70;;;;;;5113018;28;20282;-66
2023/04/08 11:53:18;;;;;;;8.73;6.88;;;25.60;50.50;;;;;;5112433;28;20274;-66
2023/04/08 11:56:17;;;;;;;10.55;6.47;;;25.70;50.40;;;;;;5111169;28;20249;-66
2023/04/08 11:59:05;;;;;;;8.65;7.20;;;25.80;50.30;;;;;;5092560;28;20228;-66
2023/04/08 12:01:54;;;;;;;7.82;6.60;;;25.80;50.10;;;;;;5090656;28;20279;-66
2023/04/08 12:04:42;;;;;;;7.82;6.22;;;25.80;50.00;;;;;;5091899;28;20196;-66
2023/04/08 12:07:30;;;;;;;7.05;6.35;;;25.80;50.00;;;;;;5091760;28;20216;-66
2023/04/08 12:10:18;;;;;;;8.13;5.85;;;25.80;50.10;;;;;;5092500;28;20244;-66
2023/04/08 12:13:07;;;;;;;8.55;6.25;;;25.80;50.10;;;;;;5090718;28;20305;-66
2023/04/08 12:15:55;;;;;;;7.75;6.50;;;25.80;50.20;;;;;;5090823;28;20279;-66
2023/04/08 12:18:44;;;;;;;6.32;5.68;;;25.70;50.20;;;;;;5091747;28;20216;-66
2023/04/08 12:21:32;;;;;;;7.85;6.03;;;25.70;50.20;;;;;;5089580;28;20202;-66
2023/04/08 12:24:20;;;;;;;9.23;7.25;;;25.70;50.20;;;;;;5091222;28;20569;-66
2023/04/08 12:27:08;;;;;;;8.60;6.50;;;25.80;50.20;;;;;;5094074;28;20224;-66
2023/04/08 12:29:58;;;;;;;8.30;5.97;;;25.80;50.10;;;;;;5093798;28;20293;-66
2023/04/08 12:32:46;;;;;;;10.48;6.88;;;25.80;50.10;;;;;;5094251;28;20707;-66
2023/04/08 12:35:35;;;;;;;7.40;6.60;;;25.80;50.10;;;;;;5094433;28;20212;-66
2023/04/08 12:38:24;;;;;;;7.85;6.32;;;25.80;50.10;;;;;;5093510;28;20227;-67
2023/04/08 12:41:12;;;;;;;6.80;5.82;;;25.90;50.20;;;;;;5093088;28;20204;-67
2023/04/08 12:44:00;;;;;;;7.22;6.05;;;25.90;50.20;;;;;;5094746;28;20200;-66
2023/04/08 12:46:50;;;;;;;7.28;6.43;;;25.80;50.10;;;;;;5095854;28;20259;-67
2023/04/08 12:49:38;;;;;;;6.63;5.97;;;25.80;50.10;;;;;;5094755;28;20188;-67
2023/04/08 12:52:29;;;;;;;8.20;5.85;;;25.80;50.10;;;;;;5092543;28;20577;-67
2023/04/08 12:55:17;;;;;;;7.97;6.72;;;25.90;50.20;;;;;;5092215;28;20238;-66
2023/04/08 12:58:05;;;;;;;7.15;6.20;;;25.80;50.10;;;;;;5108221;28;20233;-66
2023/04/08 13:00:53;;;;;;;7.63;6.43;;;25.80;50.10;;;;;;5112962;28;20211;-67
2023/04/08 13:03:42;;;;;;;6.70;6.10;;;25.80;50.10;;;;;;5113529;28;20202;-67
2023/04/08 13:06:34;;;;;;;7.70;6.20;;;25.90;49.60;;;;;;5113615;28;20203;-66
2023/04/08 13:09:22;;;;;;;6.45;5.57;;;25.90;50.00;;;;;;5112228;28;20203;-66
2023/04/08 13:12:11;;;;;;;8.75;6.80;;;25.90;50.00;;;;;;5112032;28;20348;-67
2023/04/08 13:15:00;;;;;;;8.07;6.30;;;25.90;50.10;;;;;;5112491;28;20203;-66
2023/04/08 13:17:48;;;;;;;6.80;6.10;;;25.80;50.20;;;;;;5113167;28;20223;-66
2023/04/08 13:20:37;;;;;;;7.25;6.03;;;25.70;50.20;;;;;;5112902;28;20214;-66
2023/04/08 13:23:26;;;;;;;7.28;6.30;;;25.70;50.40;;;;;;5113142;28;20562;-66
2023/04/08 13:26:14;;;;;;;7.35;6.07;;;25.60;50.40;;;;;;5113571;28;20203;-66
2023/04/08 13:29:09;;;;;;;7.00;5.63;;;25.40;50.10;;;;;;5090000;28;20550;-65
2023/04/08 13:31:57;;;;;;;5.93;5.32;;;25.70;50.40;;;;;;5107154;28;20623;-65
2023/04/08 13:34:45;;;;;;;6.78;6.18;;;25.80;50.30;;;;;;5108098;28;20694;-65
2023/04/08 13:37:33;;;;;;;6.68;5.82;;;25.80;50.20;;;;;;5117583;28;20307;-65
2023/04/08 13:40:21;;;;;;;6.70;5.72;;;25.80;54.40;;;;;;5146705;22;20344;-75
2023/04/08 13:43:10;;;;;;;7.03;5.90;;;25.90;50.10;;;;;;5130233;28;20214;-75
2023/04/08 13:46:00;;;;;;;5.90;5.18;;;25.90;50.00;;;;;;5131278;28;20206;-74
2023/04/08 13:48:48;;;;;;;7.13;6.43;;;26.00;50.00;;;;;;5131795;28;20202;-74
2023/04/08 13:51:37;;;;;;;6.50;5.72;;;26.00;50.00;;;;;;5129854;28;20218;-73
2023/04/08 13:54:26;;;;;;;8.20;5.65;;;26.00;50.00;;;;;;5130418;28;20195;-75
2023/04/08 13:57:14;;;;;;;5.55;5.05;;;26.00;49.90;;;;;;5131470;28;20639;-74
2023/04/08 14:00:03;;;;;;;5.70;5.10;;;26.00;49.60;;;;;;5131831;28;20194;-73
2023/04/08 14:02:53;;;;;;;6.30;5.65;;;25.90;49.90;;;;;;5131091;28;20195;-74
2023/04/08 14:05:42;;;;;;;5.85;5.25;;;26.00;49.80;;;;;;5132233;28;20234;-74
2023/04/08 14:08:30;;;;;;;6.55;5.68;;;26.10;49.80;;;;;;5132630;27;20197;-73
2023/04/08 14:11:20;;;;;;;7.38;5.82;;;26.20;49.20;;;;;;5131070;28;20216;-74
2023/04/08 14:14:08;;;;;;;6.43;5.57;;;26.30;49.70;;;;;;5131157;28;20210;-73
2023/04/08 14:16:57;;;;;;;6.80;5.38;;;26.30;49.60;;;;;;5132739;28;20195;-74
2023/04/08 14:19:46;;;;;;;7.88;5.97;;;26.30;49.60;;;;;;5132162;28;20195;-74
2023/04/08 14:22:35;;;;;;;5.35;4.85;;;26.20;49.00;;;;;;5129927;28;20209;-74
2023/04/08 14:25:24;;;;;;;5.75;5.18;;;26.30;49.60;;;;;;5132558;27;20191;-74
2023/04/08 14:28:12;;;;;;;5.57;5.07;;;26.30;49.60;;;;;;5132437;28;20191;-74
2023/04/08 14:31:02;;;;;;;5.38;4.93;;;26.30;49.60;;;;;;5130885;28;20569;-75
2023/04/08 14:33:51;;;;;;;6.28;5.68;;;26.30;49.50;;;;;;5130964;28;20210;-74
2023/04/08 14:36:40;;;;;;;6.28;5.68;;;26.30;49.50;;;;;;5131167;28;20203;-75
2023/04/08 14:39:29;;;;;;;5.82;5.18;;;26.30;49.50;;;;;;5124211;27;20222;-74
2023/04/08 14:42:17;;;;;;;6.07;5.47;;;26.30;49.50;;;;;;5116485;28;20234;-74